x

New London Ledge Ct - Ledge Light Weather Station (ldlc3) Weather Station

6:45 - Thu 29th Jan 2015 All times are EST. -5 hours from GMT.

  • Wind
    9mph, 11mph gusts
  • Ar Temp 33°f
  • Sea Pressure 1020mb
  • New London Ledge Ct - Ledge Light Weather Station
  • New London Ledge Ct - Ledge Light Weather Station

More Historic Weather Station data

Upgrade to MSW Pro to gain access to the past 30 days of data for over 8000 Wavebouys and Weather Stations around the globe.

Join Pro

Comparision Forecast

View Surf forecast
   
Qui 01/29 6:45 9 11 mph 1020mb 33f
6:30 10 14 mph 1019.9mb 33f
6:15 10 11 mph 1019.9mb 32f
6:00 9 11 mph 1020.1mb 32f
5:45 8 10 mph 1020.5mb 32f
5:30 9 11 mph 1020.6mb 32f
5:15 9 11 mph 1020.7mb 31f
5:00 8 11 mph 1021mb 31f
4:45 9 11 mph 1021.1mb 31f
4:30 7 10 mph 1021.4mb 31f
4:15 6 8 mph 1021.4mb 31f
4:00 6 8 mph 1021.4mb 31f
3:45 6 7 mph 1021.3mb 31f
3:30 5 6 mph 1021.6mb 31f
3:15 6 8 mph 1021.7mb 30f
3:00 7 9 mph 1021.7mb 30f
2:45 5 7 mph 1022.1mb 31f
2:30 3 6 mph 1022.2mb 31f
2:15 3 6 mph 1022.2mb 31f
2:00 3 5 mph 1022.4mb 33f
1:45 3
mph
1022.6mb 34f
1:30 3
mph
1022.8mb 32f
1:15 2 3 mph 1023.1mb 35f
1:00 1 2 mph 1023.4mb 34f
12:45 2 3 mph 1023.5mb 33f
12:30 2 3 mph 1023.6mb 31f
12:15 2 3 mph 1024mb 33f
12:00 2 3 mph 1024.1mb 31f
11:45 2 5 mph 1024.1mb 30f
11:30 5 7 mph 1024.5mb 28f
11:15 7 9 mph 1024.9mb 27f
11:00 11 13 mph 1025.2mb 26f
10:45 13 15 mph 1025.6mb 25f
10:30 13 15 mph 1025.5mb 24f
10:15 14 15 mph 1025.6mb 24f
10:00 13 15 mph 1025.6mb 23f
9:45 14 15 mph 1025.7mb 22f
9:30 15 17 mph 1025.8mb 21f
9:15 16 17 mph 1025.6mb 21f
9:00 15 17 mph 1025.7mb 20f
8:45 14 15 mph 1025.6mb 20f
8:30 18 20 mph 1025.5mb 18f
8:15 17 20 mph 1025.5mb 18f
8:00 16 18 mph 1025.5mb 18f
7:45 15 17 mph 1025.2mb 17f
7:30 17 21 mph 1025.1mb 17f
7:15 17 21 mph 1024.9mb 16f
7:00 16 17 mph 1024.9mb 15f
6:45 17 18 mph 1025mb 15f
6:30 15 17 mph 1024.9mb 16f
6:15 16 17 mph 1024.6mb 17f
6:00 13 15 mph 1024.5mb 17f
5:45 15 17 mph 1024.5mb 17f
5:30 16 18 mph 1024.4mb 17f
5:15 16 20 mph 1024.4mb 18f
5:00 17 20 mph 1024.4mb 18f
4:45 18 21 mph 1024.2mb 18f
4:30 17 20 mph 1024.4mb 18f
4:15 20 22 mph 1024.1mb 18f
4:00 18 21 mph 1024mb 18f
3:45 15 17 mph 1023.8mb 19f
3:30 16 22 mph 1023.8mb 19f
3:15 17 20 mph 1023.8mb 20f
3:00 17 20 mph 1023.9mb 20f
2:45 18 21 mph 1023.9mb 20f
2:30 16 20 mph 1024mb 20f
2:15 16 18 mph 1024mb 20f
2:00 16 20 mph 1023.8mb 21f
1:45 17 22 mph 1023.5mb 21f
1:30 18 22 mph 1023.3mb 21f
1:15 17 22 mph 1022.9mb 21f
1:00 18 22 mph 1022.7mb 21f
12:45 21 24 mph 1022.7mb 22f
12:30 20 23 mph 1022.5mb 22f
12:15 20 23 mph 1022.3mb 22f
12:00 21 25 mph 1022.2mb 23f
Qua 01/28 6:45 14 17 mph 1019mb 26f
6:30 15 20 mph 1018.8mb 27f
6:15 15 18 mph 1018.5mb 27f
6:00 17 22 mph 1018.3mb 27f
5:45 16 22 mph 1018mb 27f
5:30 17 22 mph 1017.7mb 27f
5:15 17 22 mph 1017.3mb 27f
5:00 18 24 mph 1017.1mb 28f
4:45 15 21 mph 1016.9mb 28f
4:30 14 16 mph 1016.7mb 28f
4:15 15 20 mph 1016.3mb 28f
4:00 18 24 mph 1016mb 28f
3:45 16 20 mph 1016mb 28f
3:30 15 20 mph 1015.7mb 28f
3:15 13 16 mph 1015.6mb 27f
3:00 17 22 mph 1015.3mb 27f
2:45 20 24 mph 1015.1mb 27f
2:30 17 23 mph 1015mb 27f
2:15 23 26 mph 1014.6mb 26f
2:00 18 22 mph 1014.6mb 26f
1:45 20 24 mph 1014.5mb 26f
1:30 14 21 mph 1014.6mb 25f
1:15 15 18 mph 1014.6mb 24f
1:00 15 18 mph 1014.6mb 24f
12:45 17 22 mph 1014.5mb 23f
12:30 18 24 mph 1014.4mb 23f
12:15 13 16 mph 1014.7mb 23f
12:00 15 20 mph 1014.5mb 22f
11:45 14 20 mph 1014.5mb 21f
11:30 20 23 mph 1014.4mb 20f
11:15 18 24 mph 1014.4mb 20f
11:00 18 23 mph 1014.2mb 20f
10:45 20 23 mph 1014.1mb 19f
10:30 21 24 mph 1014mb 18f
10:15 21 25 mph 1013.9mb 18f
10:00 23 29 mph 1013.9mb 17f
9:45 24 30 mph 1013.7mb 17f
9:30 23 31 mph 1013.6mb 17f
9:15 22 30 mph 1013.4mb 17f
9:00 24 29 mph 1013.2mb 16f
8:45 21 26 mph 1013.2mb 16f
8:30 21 25 mph 1013mb 16f
8:15 21 25 mph 1012.6mb 16f
8:00 17 22 mph 1012.4mb 15f
7:45 20 24 mph 1012.3mb 15f
7:30 21 25 mph 1011.9mb 15f
7:15 18 24 mph 1011.7mb 15f
7:00 20 23 mph 1011.2mb 15f
6:45 22 26 mph 1011mb 15f
6:30 22 26 mph 1010.7mb 15f
6:15 20 23 mph 1010.6mb 15f
6:00 20 24 mph 1010.4mb 15f
5:45 18 22 mph 1010.2mb 15f
5:30 21 26 mph 1009.7mb 15f
5:15 23 26 mph 1009.4mb 15f
5:00 24 29 mph 1009mb 15f
4:45 22 26 mph 1008.9mb 15f
4:30 21 25 mph 1008.8mb 15f
4:15 20 23 mph 1008.7mb 15f
4:00 22 26 mph 1008.3mb 15f
3:45 22 28 mph 1008.2mb 15f
3:30 24 28 mph 1008mb 15f
3:15 23 28 mph 1007.9mb 15f
3:00 20 26 mph 1007.8mb 14f
2:45 20 23 mph 1007.5mb 15f
2:30 17 21 mph 1007.2mb 15f
2:15 20 26 mph 1007mb 15f
2:00 22 29 mph 1006.8mb 15f
1:45 24 33 mph 1006.3mb 15f
1:30 25 31 mph 1005.9mb 15f
1:15 24 30 mph 1005.7mb 16f
1:00 23 30 mph 1005.6mb 16f
12:45 23 32 mph 1005.4mb 16f
12:30 23 31 mph 1005.4mb 16f
12:15 23 28 mph 1005.3mb 16f
12:00 29 34 mph 1005mb 16f
Ter 01/27 6:45 22 26 mph 1001.7mb 20f
6:30 20 26 mph 1001.6mb 20f
6:15 21 30 mph 1001.3mb 21f
6:00 21 29 mph 1000.9mb 22f
5:45 23 30 mph 1000.5mb 23f
5:30 23 30 mph 1000.1mb 23f
5:15 26 32 mph 999.7mb 22f
5:00 24 31 mph 999.8mb 22f
4:45 23 30 mph 999.7mb 22f
4:30 23 28 mph 999.6mb 22f
4:15 23 31 mph 999.4mb 22f
4:00 23 29 mph 999.2mb 22f
3:45 21 28 mph 999.2mb 21f
3:30 22 26 mph 999.2mb 21f
3:15 21 26 mph 999.1mb 21f
3:00 20 24 mph 999.1mb 21f
2:45 18 25 mph 999mb 22f
2:30 18 24 mph 998.9mb 22f
2:15 20 23 mph 998.8mb 22f
2:00 21 25 mph 998.8mb 22f
1:45 20 25 mph 998.9mb 22f
1:30 21 28 mph 998.8mb 21f
1:15 21 24 mph 998.8mb 20f
1:00 20 28 mph 998.7mb 20f
12:45 21 28 mph 998.7mb 21f
12:30 18 23 mph 998.8mb 21f
12:15 20 25 mph 998.8mb 21f
12:00 22 30 mph 998.6mb 21f
11:45 20 25 mph 998.6mb 22f
11:30 30 36 mph 998mb 24f
11:15 34 44 mph 997.7mb 24f
11:00 37 51 mph 997.6mb 24f
10:45 39 49 mph 997.6mb 24f
10:30 39 49 mph 997.7mb 23f
10:15 33 43 mph 998.1mb 23f
10:00 34 44 mph 998.1mb 22f
9:45 36 52 mph 998mb 22f
9:30 39 46 mph 997.6mb 22f
9:15 31 41 mph 998.1mb 21f
9:00 34 46 mph 997.7mb 21f
8:45 36 46 mph 997.5mb 20f
8:30 33 40 mph 997.7mb 20f
8:15 37 45 mph 997.3mb 20f
8:00 37 45 mph 997.4mb 19f
7:45 36 41 mph 997.2mb 19f
7:30 36 49 mph 996.9mb 19f
7:15 34 45 mph 996.5mb 19f
7:00 33 44 mph 996.6mb 19f
6:45 37 45 mph 996.5mb 19f
6:30 34 47 mph 996.5mb 19f
6:15 33 44 mph 996.8mb 19f
6:00 37 46 mph 997mb 19f
5:45 36 45 mph 997.2mb 19f
5:30 39 48 mph 996.8mb 19f
5:15 39 51 mph 996.8mb 19f
5:00 43 52 mph 996.5mb 19f
4:45 38 49 mph 997.2mb 19f
4:30 38 48 mph 997.3mb 19f
4:15 38 49 mph 997.6mb 20f
4:00 38 47 mph 997.9mb 19f
3:45 39 59 mph 997.8mb 19f
3:30 41 52 mph 997.7mb 20f
3:15 38 46 mph 998.7mb 20f
3:00 39 49 mph 998.9mb 20f
2:45 38 48 mph 999.2mb 21f
2:30 37 47 mph 999.2mb 21f
2:15 34 45 mph 999.8mb 21f
2:00 37 49 mph 999.8mb 21f
1:45 36 46 mph 999.8mb 21f
1:30 34 41 mph 999.6mb 21f
1:15 32 44 mph 999.4mb 22f
1:00 36 45 mph 999.3mb 22f
12:45 36 48 mph 999.4mb 22f
12:30 34 45 mph 999.6mb 23f
12:15 32 40 mph 1000.1mb 24f
12:00 34 45 mph 1000.3mb 24f
Seg 01/26 6:45 16 24 mph 1010.4mb 29f
6:30 15 23 mph 1010.6mb 28f
6:15 16 25 mph 1010.6mb 28f
6:00 17 24 mph 1010.6mb 28f
5:45 17 25 mph 1010.6mb 28f
5:30 18 26 mph 1010.9mb 27f
5:15 18 29 mph 1011mb 27f
5:00 20 28 mph 1011.3mb 27f
4:45 16 24 mph 1011.7mb 27f
4:30 16 24 mph 1011.5mb 27f
4:00 17 25 mph 1011.3mb 27f
3:45 17 25 mph 1011.4mb 27f
3:30 17 26 mph 1011.4mb 27f
3:15 16 26 mph 1011.6mb 27f
3:00 18 25 mph 1011.8mb 26f
2:45 17 26 mph 1011.9mb 26f
2:30 16 24 mph 1012.1mb 26f
2:15 15 23 mph 1012.5mb 26f
2:00 15 22 mph 1012.8mb 26f
1:45 15 24 mph 1012.6mb 26f
1:30 16 24 mph 1012.9mb 26f
1:15 15 21 mph 1013.2mb 26f
1:00 16 26 mph 1013.2mb 26f
12:45 16 22 mph 1013.4mb 25f
12:30 16 25 mph 1013.5mb 25f
12:15 14 18 mph 1014.1mb 24f
12:00 15 21 mph 1014.5mb 24f
11:45 16 21 mph 1015mb 24f
11:30 14 21 mph 1015.7mb 23f
11:15 13 20 mph 1016mb 22f
11:00 11 16 mph 1016.6mb 21f
10:45 10 16 mph 1017.2mb 21f
10:30 10 16 mph 1017.4mb 20f
10:15 10 15 mph 1017.1mb 20f
10:00 9 14 mph 1017.3mb 20f
9:45 10 15 mph 1017.1mb 20f
9:30 11 17 mph 1016.8mb 20f
9:15 11 18 mph 1016.6mb 20f
9:00 11 17 mph 1016.5mb 20f
8:45 11 17 mph 1016.7mb 20f
8:30 13 18 mph 1016.7mb 21f
8:15 13 17 mph 1016.8mb 20f
8:00 13 21 mph 1017.3mb 20f
7:45 13 18 mph 1017mb 21f
7:30 15 21 mph 1017mb 21f
7:15 14 21 mph 1017.1mb 21f
7:00 11 16 mph 1017.1mb 22f
6:45 11 16 mph 1017.2mb 22f
6:30 13 17 mph 1017.1mb 22f
6:15 13 18 mph 1016.8mb 22f
6:00 10 15 mph 1016.8mb 22f
5:45 10 14 mph 1016.7mb 22f
5:30 8 11 mph 1016.9mb 22f
5:15 10 14 mph 1016.8mb 22f
5:00 9 14 mph 1016.7mb 22f
4:45 9 14 mph 1016.8mb 23f
4:30 8 10 mph 1016.8mb 23f
4:15 9 14 mph 1016.4mb 23f
4:00 8 11 mph 1016.9mb 23f
3:45 9 13 mph 1016.8mb 23f
3:30 10 15 mph 1016.6mb 23f
3:15 9 14 mph 1016.7mb 23f
3:00 10 14 mph 1016.6mb 23f
2:45 10 16 mph 1016.4mb 23f
2:30 13 16 mph 1016.1mb 24f
2:15 16 20 mph 1015.7mb 23f
2:00 16 21 mph 1015.7mb 24f
1:45 18 23 mph 1015.5mb 24f